Time;durP1;ratioP1;P1;durP2;ratioP2;P2;SDS_P1;SDS_P2;PMS_P1;PMS_P2;Temp;Humidity;BMP_temperature;BMP_pressure;BME280_temperature;BME280_humidity;BME280_pressure;Samples;Min_cycle;Max_cycle;Signal;HPM_P1;HPM_P2
2021/09/20 00:00:07;;;;;;;11.18;6.42;;;;;;;6.02;77.83;100334.64;2134100;82;20997;-75
2021/09/20 00:03:09;;;;;;;10.93;6.75;;;;;;;6.06;77.93;100341.33;2128062;82;21484;-75
2021/09/20 00:06:11;;;;;;;10.30;5.67;;;;;;;6.08;77.99;100331.47;2126440;81;21043;-75
2021/09/20 00:09:12;;;;;;;12.50;6.50;;;;;;;6.12;78.13;100334.20;2130032;82;21071;-74
2021/09/20 00:12:14;;;;;;;10.95;7.53;;;;;;;6.14;78.13;100336.23;2131415;82;21002;-75
2021/09/20 00:15:16;;;;;;;19.90;7.03;;;;;;;6.15;78.23;100340.53;2128386;81;20985;-74
2021/09/20 00:18:18;;;;;;;10.85;6.87;;;;;;;6.18;78.33;100337.62;2131203;82;21083;-74
2021/09/20 00:21:19;;;;;;;11.03;6.12;;;;;;;6.21;78.38;100343.94;2125979;82;21573;-75
2021/09/20 00:24:21;;;;;;;14.78;6.92;;;;;;;6.23;78.38;100345.14;2129203;82;20989;-75
2021/09/20 00:27:22;;;;;;;11.20;6.83;;;;;;;6.23;78.40;100338.06;2129577;81;21008;-74
2021/09/20 00:30:24;;;;;;;11.03;6.47;;;;;;;6.22;78.33;100342.13;2126285;82;20996;-75
2021/09/20 00:33:26;;;;;;;11.18;6.70;;;;;;;6.21;78.31;100345.75;2125610;82;21026;-75
2021/09/20 00:36:27;;;;;;;14.95;8.20;;;;;;;6.16;78.29;100343.98;2128728;82;20989;-75
2021/09/20 00:39:29;;;;;;;11.73;7.83;;;;;;;6.15;78.57;100348.43;2134287;82;21045;-73
2021/09/20 00:42:31;;;;;;;15.85;7.40;;;;;;;6.15;78.51;100346.28;2123363;82;21333;-75
2021/09/20 00:45:32;;;;;;;17.73;9.20;;;;;;;6.13;78.53;100345.08;2128009;82;21528;-74
2021/09/20 00:48:34;;;;;;;15.72;8.03;;;;;;;6.12;78.56;100350.02;2128129;82;20987;-75
2021/09/20 00:51:36;;;;;;;17.98;8.48;;;;;;;6.10;78.61;100353.25;2125923;82;21006;-75
2021/09/20 00:54:37;;;;;;;11.55;7.97;;;;;;;6.11;78.72;100352.31;2122926;82;20997;-75
2021/09/20 00:57:45;;;;;;;13.58;8.18;;;;;;;6.12;78.66;100348.70;2127959;81;20957;-74
2021/09/20 01:00:47;;;;;;;14.60;8.03;;;;;;;6.10;78.53;100344.03;2123362;82;21031;-74
2021/09/20 01:03:49;;;;;;;12.95;7.20;;;;;;;6.09;78.53;100339.75;2129369;82;21036;-75
2021/09/20 01:06:51;;;;;;;12.25;7.70;;;;;;;6.08;78.63;100345.95;2122278;82;21028;-76
2021/09/20 01:09:53;;;;;;;13.03;8.68;;;;;;;6.09;78.64;100348.14;2136559;82;21328;-76
2021/09/20 01:12:55;;;;;;;14.30;7.95;;;;;;;6.11;78.80;100345.72;2148582;82;21034;-76
2021/09/20 01:15:56;;;;;;;10.00;7.33;;;;;;;6.12;78.84;100343.43;2150078;81;21478;-76
2021/09/20 01:18:58;;;;;;;14.50;8.80;;;;;;;6.13;78.88;100342.94;2151199;82;21504;-75
2021/09/20 01:22:04;;;;;;;13.28;8.95;;;;;;;6.15;78.99;100348.43;2149663;82;21457;-76
2021/09/20 01:25:08;;;;;;;14.18;9.10;;;;;;;6.15;79.09;100339.21;2149113;82;21403;-76
2021/09/20 01:28:10;;;;;;;12.95;9.15;;;;;;;6.18;79.13;100336.30;2149348;82;20995;-75
2021/09/20 01:31:12;;;;;;;13.55;8.95;;;;;;;6.19;79.22;100337.96;2149471;82;20994;-75
2021/09/20 01:34:13;;;;;;;13.65;8.53;;;;;;;6.22;79.34;100344.77;2150967;81;21007;-76
2021/09/20 01:37:15;;;;;;;13.95;9.35;;;;;;;6.26;79.37;100343.55;2148121;82;21470;-76
2021/09/20 01:40:17;;;;;;;14.40;9.40;;;;;;;6.30;79.46;100346.26;2150467;82;21042;-75
2021/09/20 01:43:19;;;;;;;14.07;9.65;;;;;;;6.34;79.61;100344.21;2148791;82;21668;-76
2021/09/20 01:46:21;;;;;;;13.60;9.98;;;;;;;6.38;79.79;100344.28;2147146;82;21029;-75
2021/09/20 01:49:23;;;;;;;15.40;10.50;;;;;;;6.42;79.87;100339.08;2148399;82;20994;-75
2021/09/20 01:52:25;;;;;;;16.10;10.98;;;;;;;6.44;80.04;100344.56;2151129;82;21617;-76
2021/09/20 01:55:26;;;;;;;19.60;10.48;;;;;;;6.49;80.16;100335.77;2149130;82;20975;-75
2021/09/20 01:58:28;;;;;;;15.35;10.50;;;;;;;6.55;80.17;100340.99;2151674;82;22458;-76
2021/09/20 02:01:30;;;;;;;20.65;11.45;;;;;;;6.58;80.30;100339.40;2148776;81;21600;-76
2021/09/20 02:04:31;;;;;;;23.80;12.47;;;;;;;6.67;80.35;100341.70;2150151;82;20986;-75
2021/09/20 02:07:34;;;;;;;16.75;11.40;;;;;;;6.73;80.42;100342.50;2148336;82;20995;-76
2021/09/20 02:10:35;;;;;;;19.67;11.68;;;;;;;6.79;80.49;100337.17;2150984;81;21018;-76
2021/09/20 02:13:38;;;;;;;19.25;12.47;;;;;;;6.84;80.50;100333.61;2150231;82;21048;-76
2021/09/20 02:16:39;;;;;;;19.82;11.50;;;;;;;6.89;80.50;100340.62;2148143;82;21497;-75
2021/09/20 02:19:41;;;;;;;21.30;11.65;;;;;;;6.94;80.63;100333.97;2151403;82;21062;-75
2021/09/20 02:22:43;;;;;;;16.48;12.00;;;;;;;7.00;80.74;100338.35;2150616;82;21015;-76
2021/09/20 02:25:44;;;;;;;19.15;12.73;;;;;;;7.04;80.75;100335.77;2148783;82;21038;-76
2021/09/20 02:28:46;;;;;;;18.90;12.43;;;;;;;7.08;80.71;100342.45;2149627;82;21026;-76
2021/09/20 02:31:47;;;;;;;21.68;11.95;;;;;;;7.12;80.69;100341.19;2148968;82;20990;-75
2021/09/20 02:34:49;;;;;;;23.65;12.55;;;;;;;7.15;80.80;100340.45;2148942;81;21014;-76
2021/09/20 02:37:51;;;;;;;17.60;12.45;;;;;;;7.18;80.86;100341.98;2148371;82;21065;-75
2021/09/20 02:40:52;;;;;;;21.70;12.43;;;;;;;7.22;80.85;100346.00;2151561;82;21072;-76
2021/09/20 02:43:54;;;;;;;23.35;13.43;;;;;;;7.26;80.89;100339.94;2147166;82;20997;-76
2021/09/20 02:46:56;;;;;;;17.98;12.33;;;;;;;7.29;80.98;100344.48;2149160;82;21422;-76
2021/09/20 02:49:57;;;;;;;20.60;12.73;;;;;;;7.34;81.05;100340.91;2149548;82;21029;-75
2021/09/20 02:52:59;;;;;;;19.05;13.20;;;;;;;7.38;81.13;100334.39;2148413;82;21014;-77
2021/09/20 02:56:02;;;;;;;19.77;13.43;;;;;;;7.43;81.17;100337.91;2145007;82;21006;-75
2021/09/20 02:59:04;;;;;;;21.37;12.40;;;;;;;7.47;81.21;100345.91;2150241;82;20974;-76
2021/09/20 03:02:05;;;;;;;26.27;13.15;;;;;;;7.50;81.27;100340.34;2149757;81;21053;-76
2021/09/20 03:05:08;;;;;;;16.20;12.23;;;;;;;7.53;81.22;100349.30;2146926;81;21070;-76
2021/09/20 03:08:10;;;;;;;18.27;12.37;;;;;;;7.54;81.32;100343.03;2149622;82;20983;-76
2021/09/20 03:11:11;;;;;;;19.32;12.93;;;;;;;7.59;81.41;100348.72;2145543;81;21305;-76
2021/09/20 03:14:13;;;;;;;16.97;12.95;;;;;;;7.63;81.54;100352.77;2146424;82;21496;-76
2021/09/20 03:17:14;;;;;;;22.32;13.20;;;;;;;7.67;81.52;100348.52;2148469;82;21014;-75
2021/09/20 03:20:17;;;;;;;18.55;12.53;;;;;;;7.73;81.59;100348.77;2145896;82;21560;-76
2021/09/20 03:23:18;;;;;;;18.17;12.70;;;;;;;7.76;81.67;100351.61;2148814;82;21046;-75
2021/09/20 03:26:20;;;;;;;17.12;12.47;;;;;;;7.80;81.71;100351.69;2148693;82;20974;-75
2021/09/20 03:29:21;;;;;;;20.85;13.00;;;;;;;7.81;81.78;100358.14;2150075;82;21041;-75
2021/09/20 03:32:23;;;;;;;23.35;13.53;;;;;;;7.86;81.84;100352.44;2150084;81;21040;-75
2021/09/20 03:35:25;;;;;;;18.65;12.43;;;;;;;7.90;81.89;100360.41;2147716;82;21561;-75
2021/09/20 03:38:26;;;;;;;19.12;13.80;;;;;;;7.92;81.92;100353.17;2150757;82;21517;-75
2021/09/20 03:41:28;;;;;;;23.57;13.30;;;;;;;7.96;82.02;100355.03;2150346;82;21616;-75
2021/09/20 03:44:29;;;;;;;18.57;13.03;;;;;;;8.00;82.03;100361.22;2150501;82;21037;-76
2021/09/20 03:47:31;;;;;;;21.77;12.95;;;;;;;8.04;82.08;100362.58;2152896;82;20975;-76
2021/09/20 03:50:33;;;;;;;17.45;12.35;;;;;;;8.08;82.08;100358.69;2151389;81;21034;-76
2021/09/20 03:53:35;;;;;;;14.93;11.65;;;;;;;8.13;82.05;100361.38;2151165;82;20985;-75
2021/09/20 03:56:37;;;;;;;16.17;12.37;;;;;;;8.16;82.12;100365.87;2149928;82;21066;-75
2021/09/20 03:59:38;;;;;;;16.30;11.88;;;;;;;8.19;82.10;100366.08;2151356;82;21069;-75
2021/09/20 04:02:40;;;;;;;20.52;12.53;;;;;;;8.17;82.03;100367.56;2151216;82;21441;-76
2021/09/20 04:05:41;;;;;;;20.25;12.15;;;;;;;8.19;82.13;100365.58;2150741;82;20974;-76
2021/09/20 04:08:43;;;;;;;23.45;11.95;;;;;;;8.21;82.17;100357.52;2150422;82;21024;-75
2021/09/20 04:11:44;;;;;;;16.87;12.10;;;;;;;8.23;82.23;100363.50;2137700;82;21491;-75
2021/09/20 04:14:46;;;;;;;17.85;12.40;;;;;;;8.25;82.24;100366.81;2137845;82;21048;-76
2021/09/20 04:17:48;;;;;;;17.10;12.35;;;;;;;8.26;82.28;100361.39;2132785;82;21489;-74
2021/09/20 04:20:51;;;;;;;17.77;12.53;;;;;;;8.28;82.32;100363.91;2136120;82;21578;-75
2021/09/20 04:23:53;;;;;;;17.55;12.15;;;;;;;8.31;82.39;100363.61;2131602;81;21025;-76
2021/09/20 04:26:54;;;;;;;19.25;12.33;;;;;;;8.33;82.38;100362.95;2131803;81;21053;-76
2021/09/20 04:29:56;;;;;;;16.55;12.15;;;;;;;8.37;82.43;100365.66;2140994;82;21043;-75
2021/09/20 04:32:57;;;;;;;16.45;11.65;;;;;;;8.39;82.46;100363.75;2135358;81;21016;-74
2021/09/20 04:35:59;;;;;;;19.90;12.10;;;;;;;8.41;82.45;100371.02;2134289;81;20986;-75
2021/09/20 04:39:00;;;;;;;15.40;12.23;;;;;;;8.44;82.43;100372.55;2133878;82;20974;-76
2021/09/20 04:42:03;;;;;;;16.35;11.70;;;;;;;8.47;82.44;100369.10;2135731;82;21066;-77
2021/09/20 04:45:06;;;;;;;19.05;13.22;;;;;;;8.47;82.41;100366.45;2133423;81;21070;-77
2021/09/20 04:48:10;;;;;;;19.32;11.95;;;;;;;8.48;82.49;100379.22;2104868;82;21006;-76
2021/09/20 04:51:11;;;;;;;22.40;12.58;;;;;;;8.49;82.49;100380.88;2137076;82;21452;-76
2021/09/20 04:54:12;;;;;;;18.20;12.15;;;;;;;8.50;82.48;100388.67;2132659;82;21004;-77
2021/09/20 04:57:14;;;;;;;19.67;12.07;;;;;;;8.53;82.53;100388.38;2140854;82;21000;-76
2021/09/20 05:00:16;;;;;;;16.75;11.38;;;;;;;8.55;82.51;100391.35;2139972;82;21465;-76
2021/09/20 05:03:18;;;;;;;16.50;11.73;;;;;;;8.53;82.42;100394.98;2133245;81;21535;-75
2021/09/20 05:06:20;;;;;;;17.35;11.60;;;;;;;8.55;82.42;100390.86;2134902;81;21002;-76
2021/09/20 05:09:21;;;;;;;17.50;11.33;;;;;;;8.56;82.42;100388.58;2135732;81;21051;-76
2021/09/20 05:12:23;;;;;;;13.60;10.15;;;;;;;8.58;82.40;100397.67;2135824;82;20968;-76
2021/09/20 05:15:25;;;;;;;17.77;11.08;;;;;;;8.58;82.40;100404.28;2134587;82;21047;-76
2021/09/20 05:18:26;;;;;;;15.98;11.12;;;;;;;8.59;82.39;100401.97;2133135;81;21067;-77
2021/09/20 05:21:28;;;;;;;16.32;10.63;;;;;;;8.62;82.46;100405.67;2136555;81;21055;-78
2021/09/20 05:24:29;;;;;;;15.15;10.43;;;;;;;8.63;82.48;100406.83;2131469;82;20972;-77
2021/09/20 05:27:31;;;;;;;14.15;10.60;;;;;;;8.66;82.43;100410.50;2135911;81;21003;-77
2021/09/20 05:30:33;;;;;;;14.75;10.23;;;;;;;8.68;82.42;100413.02;2129704;82;21031;-77
2021/09/20 05:33:35;;;;;;;14.28;10.63;;;;;;;8.72;82.43;100415.69;2131772;82;21551;-77
2021/09/20 05:36:36;;;;;;;15.53;9.68;;;;;;;8.73;82.38;100418.70;2131503;82;20999;-77
2021/09/20 05:39:38;;;;;;;18.35;10.53;;;;;;;8.77;82.45;100415.27;2132633;82;20978;-77
2021/09/20 05:42:40;;;;;;;15.58;11.08;;;;;;;8.80;82.49;100420.25;2133764;82;20978;-77
2021/09/20 05:45:42;;;;;;;14.78;10.25;;;;;;;8.83;82.42;100420.78;2136061;81;21462;-78
2021/09/20 05:48:44;;;;;;;18.70;10.28;;;;;;;8.89;82.50;100418.03;2137171;81;21499;-77
2021/09/20 05:51:45;;;;;;;15.13;10.60;;;;;;;8.95;82.54;100423.59;2132531;82;21562;-77
2021/09/20 05:54:47;;;;;;;12.73;9.30;;;;;;;9.00;82.39;100426.27;2133143;81;20994;-76
2021/09/20 05:57:49;;;;;;;13.75;9.70;;;;;;;9.01;82.32;100429.24;2134447;82;21009;-77
2021/09/20 06:00:50;;;;;;;15.75;10.65;;;;;;;9.03;82.36;100433.41;2133956;82;21553;-77
2021/09/20 06:03:52;;;;;;;15.80;10.40;;;;;;;9.06;82.28;100434.92;2105279;82;21421;-76
2021/09/20 06:06:54;;;;;;;16.37;10.40;;;;;;;9.06;82.25;100436.25;2129872;82;21019;-75
2021/09/20 06:09:55;;;;;;;14.85;10.40;;;;;;;9.09;82.30;100435.95;2137418;81;21632;-75
2021/09/20 06:12:57;;;;;;;14.70;10.15;;;;;;;9.10;82.29;100441.11;2117655;82;21561;-75
2021/09/20 06:15:58;;;;;;;18.40;10.82;;;;;;;9.13;82.29;100437.33;2118656;82;21005;-75
2021/09/20 06:19:00;;;;;;;13.25;10.20;;;;;;;9.13;82.25;100436.84;2119431;83;20979;-76
2021/09/20 06:22:02;;;;;;;14.70;10.10;;;;;;;9.17;82.26;100447.95;2118278;81;20983;-76
2021/09/20 06:25:06;;;;;;;18.35;10.68;;;;;;;9.17;82.15;100443.98;2115445;82;21008;-76
2021/09/20 06:28:08;;;;;;;12.82;9.33;;;;;;;9.19;82.18;100446.00;2119085;82;20984;-75
2021/09/20 06:31:09;;;;;;;17.87;10.15;;;;;;;9.21;82.11;100444.05;2120219;82;21015;-75
2021/09/20 06:34:11;;;;;;;14.53;9.98;;;;;;;9.22;82.12;100446.19;2118101;82;21051;-75
2021/09/20 06:37:12;;;;;;;13.45;9.88;;;;;;;9.27;82.23;100446.58;2119711;82;20991;-76
2021/09/20 06:40:14;;;;;;;13.35;9.40;;;;;;;9.28;82.19;100446.91;2115981;82;21031;-76
2021/09/20 06:43:16;;;;;;;16.57;10.58;;;;;;;9.31;82.10;100443.95;2116494;82;20951;-75
2021/09/20 06:46:17;;;;;;;14.53;10.32;;;;;;;9.33;82.08;100449.45;2119741;83;21654;-75
2021/09/20 06:49:21;;;;;;;12.40;9.73;;;;;;;9.35;82.18;100455.93;2114846;82;20987;-76
2021/09/20 06:52:22;;;;;;;16.52;10.60;;;;;;;9.35;82.05;100458.58;2119160;82;21046;-75
2021/09/20 06:55:24;;;;;;;15.65;10.32;;;;;;;9.36;82.10;100461.06;2120860;82;21033;-76
2021/09/20 06:58:25;;;;;;;14.65;10.32;;;;;;;9.38;82.11;100465.72;2118043;81;21656;-76
2021/09/20 07:01:27;;;;;;;16.55;10.32;;;;;;;9.40;82.18;100463.77;2117450;82;20953;-76
2021/09/20 07:04:29;;;;;;;22.95;11.20;;;;;;;9.42;82.06;100463.10;2115001;82;21072;-76
2021/09/20 07:07:31;;;;;;;16.90;10.13;;;;;;;9.45;82.05;100468.59;2115749;82;21423;-76
2021/09/20 07:10:32;;;;;;;17.25;10.75;;;;;;;9.49;82.10;100473.95;2119879;82;21030;-76
2021/09/20 07:13:34;;;;;;;14.63;10.55;;;;;;;9.52;82.01;100467.02;2125324;82;21008;-76
2021/09/20 07:16:36;;;;;;;14.50;9.93;;;;;;;9.52;81.92;100474.14;2124631;82;21012;-76
2021/09/20 07:19:37;;;;;;;15.00;9.98;;;;;;;9.53;81.95;100470.49;2124960;82;21017;-75
2021/09/20 07:22:40;;;;;;;17.32;10.72;;;;;;;9.54;81.91;100473.47;2130239;81;21048;-76
2021/09/20 07:25:41;;;;;;;17.70;11.68;;;;;;;9.58;82.02;100483.63;2125505;82;20985;-76
2021/09/20 07:28:43;;;;;;;18.50;11.83;;;;;;;9.59;81.98;100479.16;2126756;82;21493;-76
2021/09/20 07:31:44;;;;;;;15.75;10.93;;;;;;;9.63;81.95;100483.19;2125550;82;21008;-77
2021/09/20 07:34:46;;;;;;;15.43;11.28;;;;;;;9.65;81.84;100475.89;2123910;82;21021;-76
2021/09/20 07:37:52;;;;;;;16.67;11.15;;;;;;;9.67;81.85;100482.38;2128216;81;21495;-75
2021/09/20 07:40:54;;;;;;;16.00;11.03;;;;;;;9.72;81.97;100480.94;2122706;82;21020;-76
2021/09/20 07:43:56;;;;;;;15.38;10.70;;;;;;;9.79;81.96;100487.78;2129274;81;20974;-76
2021/09/20 07:46:57;;;;;;;14.83;11.25;;;;;;;9.83;81.82;100486.50;2127209;82;21048;-77
2021/09/20 07:49:59;;;;;;;13.53;10.05;;;;;;;9.85;81.74;100482.72;2127074;81;21500;-76
2021/09/20 07:53:00;;;;;;;22.67;12.10;;;;;;;9.88;81.71;100489.03;2123870;82;21041;-77
2021/09/20 07:56:02;;;;;;;16.60;11.48;;;;;;;9.91;81.68;100492.34;2127930;82;20970;-75
2021/09/20 07:59:04;;;;;;;19.17;12.30;;;;;;;9.95;81.66;100489.74;2131672;82;21000;-77
2021/09/20 08:02:05;;;;;;;17.87;11.55;;;;;;;9.98;81.54;100492.08;2125376;82;21086;-76
2021/09/20 08:05:09;;;;;;;16.95;11.35;;;;;;;10.04;81.61;100496.77;2129160;81;21064;-77
2021/09/20 08:08:11;;;;;;;16.57;12.63;;;;;;;10.10;81.56;100492.99;2126849;81;21021;-76
2021/09/20 08:11:13;;;;;;;23.00;12.37;;;;;;;10.13;81.34;100497.16;2128637;82;21051;-78
2021/09/20 08:14:15;;;;;;;22.82;12.93;;;;;;;10.21;81.50;100496.39;2151456;82;21029;-78
2021/09/20 08:17:16;;;;;;;17.42;13.00;;;;;;;10.30;81.46;100501.64;2151337;82;20989;-79
2021/09/20 08:20:19;;;;;;;16.25;12.00;;;;;;;10.40;81.51;100500.20;2147597;82;22362;-76
2021/09/20 08:23:21;;;;;;;16.17;12.05;;;;;;;10.53;81.52;100505.07;2150506;81;20986;-77
2021/09/20 08:26:22;;;;;;;17.65;13.08;;;;;;;10.62;81.30;100498.84;2146975;82;21041;-77
2021/09/20 08:29:24;;;;;;;19.15;12.73;;;;;;;10.72;81.30;100500.04;2149127;82;20974;-78
2021/09/20 08:32:25;;;;;;;20.17;13.00;;;;;;;10.83;80.97;100499.77;2146365;82;21006;-77
2021/09/20 08:35:28;;;;;;;19.90;13.32;;;;;;;10.98;80.95;100498.66;2150234;82;21051;-78
2021/09/20 08:38:29;;;;;;;21.57;13.75;;;;;;;11.10;80.78;100504.03;2148308;82;21534;-77
2021/09/20 08:41:31;;;;;;;19.20;12.33;;;;;;;11.19;80.34;100501.73;2148531;82;21422;-77
2021/09/20 08:44:34;;;;;;;18.82;12.40;;;;;;;11.32;80.24;100500.42;2150787;82;21454;-76
2021/09/20 08:47:42;;;;;;;21.42;12.33;;;;;;;11.42;80.18;100501.13;2150288;82;21073;-75
2021/09/20 08:50:44;;;;;;;20.25;13.85;;;;;;;11.53;79.97;100508.79;2149437;82;21006;-77
2021/09/20 08:53:47;;;;;;;18.77;12.10;;;;;;;11.70;79.94;100508.81;2150864;82;21006;-78
2021/09/20 08:56:50;;;;;;;17.57;11.93;;;;;;;11.89;79.51;100510.69;2148516;82;21021;-76
2021/09/20 08:59:52;;;;;;;19.62;12.80;;;;;;;12.17;78.74;100510.86;2147274;81;21008;-78
2021/09/20 09:02:54;;;;;;;21.17;13.38;;;;;;;12.29;78.41;100514.33;2146242;82;21038;-77
2021/09/20 09:05:56;;;;;;;15.48;12.10;;;;;;;12.29;78.41;100514.33;2150986;82;21018;-77
2021/09/20 09:08:58;;;;;;;16.87;11.38;;;;;;;12.49;78.23;100524.11;2147049;81;20998;-76
2021/09/20 09:12:22;;;;;;;16.75;11.63;;;;;;;12.80;78.06;100522.03;2152142;82;21093;-77
2021/09/20 09:15:25;;;;;;;16.73;11.70;;;;;;;13.19;77.85;100519.89;2147758;82;20991;-76
2021/09/20 09:18:27;;;;;;;14.47;11.28;;;;;;;13.42;76.75;100523.45;2147797;82;21462;-76
2021/09/20 09:21:33;;;;;;;16.05;11.63;;;;;;;13.36;75.85;100524.67;2150688;82;21518;-77
2021/09/20 09:24:34;;;;;;;14.85;10.50;;;;;;;13.30;75.60;100514.20;2149462;82;21049;-77
2021/09/20 09:27:38;;;;;;;14.58;10.35;;;;;;;13.41;75.79;100519.14;2150001;82;21051;-76
2021/09/20 09:30:44;;;;;;;14.03;10.82;;;;;;;13.55;75.29;100514.07;2147878;82;21688;-76
2021/09/20 09:33:46;;;;;;;16.17;10.32;;;;;;;13.61;75.24;100507.52;2153773;82;21514;-77
2021/09/20 09:36:48;;;;;;;17.32;9.43;;;;;;;13.69;74.85;100505.30;2149904;82;21517;-77
2021/09/20 09:39:49;;;;;;;16.75;10.85;;;;;;;13.90;74.33;100496.63;2151233;82;21746;-76
2021/09/20 09:42:58;;;;;;;16.77;10.43;;;;;;;14.11;73.94;100496.80;2150660;82;21011;-77
2021/09/20 09:46:05;;;;;;;14.47;9.80;;;;;;;14.20;73.61;100500.22;2149069;82;21720;-76
2021/09/20 09:49:18;;;;;;;12.88;9.03;;;;;;;14.34;73.14;100502.59;2143139;82;20998;-76
2021/09/20 09:52:20;;;;;;;11.00;8.53;;;;;;;14.44;73.13;100503.65;2148582;82;21042;-77
2021/09/20 09:55:24;;;;;;;11.63;8.68;;;;;;;14.56;72.19;100504.91;2145152;82;21082;-77
2021/09/20 09:58:26;;;;;;;11.15;8.40;;;;;;;14.59;72.28;100504.53;2123465;82;21493;-75
2021/09/20 10:01:35;;;;;;;11.38;7.95;;;;;;;14.67;71.60;100505.78;2152684;82;21053;-78
2021/09/20 10:04:42;;;;;;;14.20;8.80;;;;;;;14.70;71.33;100501.41;2150521;82;21664;-77
2021/09/20 10:07:47;;;;;;;10.53;7.65;;;;;;;14.78;70.92;100500.47;2143625;82;21032;-76
2021/09/20 10:10:49;;;;;;;10.58;7.62;;;;;;;14.92;70.72;100497.47;2149665;82;21022;-76
2021/09/20 10:13:51;;;;;;;9.68;7.00;;;;;;;15.07;70.42;100496.95;2134729;82;21038;-77
2021/09/20 10:16:56;;;;;;;11.12;7.30;;;;;;;15.18;69.80;100497.81;2125343;82;20998;-78
2021/09/20 10:20:00;;;;;;;10.55;7.60;;;;;;;15.28;69.95;100484.64;2129336;81;20973;-77
2021/09/20 10:23:02;;;;;;;10.88;7.45;;;;;;;15.36;69.16;100492.55;2135223;82;21032;-76
2021/09/20 10:26:04;;;;;;;12.05;7.83;;;;;;;15.26;68.56;100488.86;2123439;81;20984;-77
2021/09/20 10:29:09;;;;;;;10.10;7.67;;;;;;;15.05;68.74;100488.29;2131992;82;21334;-77
2021/09/20 10:32:11;;;;;;;10.50;8.63;;;;;;;14.82;68.29;100488.92;2104887;82;21009;-76
2021/09/20 10:35:35;;;;;;;10.75;8.10;;;;;;;14.60;68.40;100491.50;2126313;81;21009;-77
2021/09/20 10:38:36;;;;;;;13.45;7.37;;;;;;;14.43;68.53;100498.00;2129735;82;21058;-77
2021/09/20 10:41:38;;;;;;;13.25;8.00;;;;;;;14.15;67.69;100491.09;2127158;82;21579;-77
2021/09/20 10:44:41;;;;;;;16.95;7.58;;;;;;;13.94;67.51;100495.76;2123705;82;21542;-76
2021/09/20 10:47:46;;;;;;;12.25;7.15;;;;;;;13.77;67.45;100495.91;2124092;82;21061;-76
2021/09/20 10:51:04;;;;;;;10.20;7.50;;;;;;;13.58;68.00;100497.72;2126459;81;21021;-77
2021/09/20 10:54:25;;;;;;;10.30;7.35;;;;;;;13.51;68.46;100499.41;2127653;82;21009;-78
2021/09/20 10:57:27;;;;;;;11.90;7.30;;;;;;;13.42;68.20;100494.64;2131608;81;21037;-77
2021/09/20 11:00:28;;;;;;;11.57;7.62;;;;;;;13.30;68.56;100502.20;2123806;82;20945;-78
2021/09/20 11:03:46;;;;;;;8.95;7.37;;;;;;;13.18;68.36;100499.59;2130751;82;21377;-77
2021/09/20 11:07:20;;;;;;;8.18;6.53;;;;;;;13.06;68.79;100511.11;2127503;82;21030;-76
2021/09/20 11:10:30;;;;;;;9.13;6.50;;;;;;;12.95;68.88;100512.34;2122681;82;21162;-76
2021/09/20 11:13:35;;;;;;;;;;;;;;;12.82;68.81;100520.55;2133576;81;21002;-77
2021/09/20 11:17:01;;;;;;;6.20;5.30;;;;;;;12.67;68.51;100512.41;2131917;82;20128;-75
2021/09/20 11:20:21;;;;;;;9.40;6.70;;;;;;;12.57;68.30;100520.61;2125417;82;21055;-78
2021/09/20 11:23:36;;;;;;;8.95;5.78;;;;;;;12.50;68.98;100523.60;2128349;81;21021;-77
2021/09/20 11:26:38;;;;;;;7.10;5.60;;;;;;;12.50;69.14;100519.61;2127949;81;21098;-77
2021/09/20 11:29:41;;;;;;;7.95;6.15;;;;;;;12.48;68.95;100522.45;2126418;81;21476;-77
2021/09/20 11:32:55;;;;;;;10.38;6.47;;;;;;;12.45;69.33;100532.62;2126435;82;21040;-76
2021/09/20 11:35:56;;;;;;;8.65;6.53;;;;;;;12.48;69.57;100525.63;2128169;81;20982;-77
2021/09/20 11:39:17;;;;;;;9.38;6.33;;;;;;;12.45;69.39;100530.78;2128052;81;21383;-76
2021/09/20 11:42:24;;;;;;;9.93;7.12;;;;;;;12.45;69.56;100533.44;2126303;82;21011;-75
2021/09/20 11:45:33;;;;;;;10.88;7.75;;;;;;;12.50;70.02;100531.58;2129744;82;21001;-76
2021/09/20 11:48:35;;;;;;;11.00;7.10;;;;;;;12.53;69.38;100530.77;2125865;82;20950;-76
2021/09/20 11:51:37;;;;;;;13.03;8.48;;;;;;;12.54;69.67;100533.75;2128419;81;21061;-75
2021/09/20 11:54:43;;;;;;;17.00;10.93;;;;;;;12.60;69.56;100530.91;2132786;82;21025;-75
2021/09/20 11:57:49;;;;;;;13.68;10.08;;;;;;;12.63;69.58;100530.56;2123616;82;20987;-75
2021/09/20 12:00:51;;;;;;;16.37;9.78;;;;;;;12.67;69.46;100529.25;2131415;82;20997;-76
2021/09/20 12:03:56;;;;;;;8.88;7.28;;;;;;;12.73;69.47;100526.41;2121217;82;20985;-76
2021/09/20 12:06:58;;;;;;;10.70;7.33;;;;;;;12.81;69.38;100533.52;2124279;82;21509;-76
2021/09/20 12:10:01;;;;;;;7.95;7.05;;;;;;;12.88;69.02;100530.00;2126852;82;21560;-77
2021/09/20 12:13:08;;;;;;;13.55;7.37;;;;;;;13.00;68.73;100536.61;2129645;81;21032;-77
2021/09/20 12:16:10;;;;;;;10.18;6.90;;;;;;;13.10;68.82;100536.92;2126277;82;21075;-78
2021/09/20 12:19:12;;;;;;;8.20;7.00;;;;;;;13.18;68.54;100535.05;2130511;82;21067;-78
2021/09/20 12:22:13;;;;;;;7.60;6.83;;;;;;;13.27;68.41;100542.53;2098876;82;21472;-76
2021/09/20 12:25:29;;;;;;;8.28;6.37;;;;;;;13.27;68.17;100544.38;2127387;82;20980;-78
2021/09/20 12:28:39;;;;;;;9.10;7.10;;;;;;;13.26;67.74;100536.03;2126964;82;21030;-77
2021/09/20 12:31:43;;;;;;;8.28;6.75;;;;;;;13.26;67.67;100534.19;2134893;82;21478;-76
2021/09/20 12:34:47;;;;;;;8.18;6.80;;;;;;;13.26;67.76;100534.19;2126701;82;21043;-76
2021/09/20 12:37:48;;;;;;;7.22;6.47;;;;;;;13.26;67.18;100531.53;2100446;82;21052;-78
2021/09/20 12:40:52;;;;;;;6.87;6.03;;;;;;;13.33;67.43;100534.34;2128585;82;20976;-77
2021/09/20 12:43:54;;;;;;;11.05;6.53;;;;;;;13.37;66.19;100537.80;2125582;81;21000;-76
2021/09/20 12:47:18;;;;;;;8.00;6.20;;;;;;;13.38;67.19;100542.14;2127468;82;20967;-77
2021/09/20 12:50:21;;;;;;;8.18;6.03;;;;;;;13.49;67.09;100540.92;2126054;82;20954;-76
2021/09/20 12:53:36;;;;;;;5.83;5.22;;;;;;;13.61;67.00;100540.02;2129994;82;20991;-78
2021/09/20 12:56:38;;;;;;;5.50;3.98;;;;;;;13.75;66.84;100539.26;2120151;81;21036;-77
2021/09/20 12:59:40;;;;;;;8.45;5.53;;;;;;;13.86;66.42;100540.69;2125732;82;20977;-78
2021/09/20 13:02:42;;;;;;;7.78;5.20;;;;;;;13.92;66.36;100544.48;2134401;82;21619;-77
2021/09/20 13:05:48;;;;;;;7.10;4.42;;;;;;;13.87;65.43;100539.16;2131484;81;20970;-77
2021/09/20 13:09:06;;;;;;;6.92;4.47;;;;;;;13.79;65.54;100537.06;2131506;82;20989;-77
2021/09/20 13:12:12;;;;;;;7.78;4.80;;;;;;;13.70;65.22;100546.13;2128184;81;21014;-76
2021/09/20 13:15:22;;;;;;;6.83;4.28;;;;;;;13.63;65.26;100539.34;2128483;82;21492;-76
2021/09/20 13:18:24;;;;;;;7.28;4.28;;;;;;;13.55;64.69;100541.55;2128285;82;20992;-78
2021/09/20 13:21:26;;;;;;;4.97;4.47;;;;;;;13.47;65.14;100548.77;2123247;81;21047;-78
2021/09/20 13:24:34;;;;;;;6.10;4.60;;;;;;;13.42;65.74;100552.77;2129556;81;21028;-78
2021/09/20 13:27:35;;;;;;;8.38;4.72;;;;;;;13.40;65.44;100549.47;2128304;81;21562;-78
2021/09/20 13:30:48;;;;;;;7.78;4.67;;;;;;;13.32;65.47;100556.17;2130253;82;21045;-76
2021/09/20 13:33:51;;;;;;;10.30;5.10;;;;;;;13.30;65.58;100555.51;2122567;82;21037;-78
2021/09/20 13:36:53;;;;;;;6.33;5.17;;;;;;;13.32;65.62;100550.84;2128657;82;21059;-78
2021/09/20 13:39:54;;;;;;;6.00;5.10;;;;;;;13.32;65.54;100548.18;2125967;82;21006;-81
2021/09/20 13:42:56;;;;;;;15.30;5.22;;;;;;;13.32;65.73;100550.84;2128339;82;21017;-77
2021/09/20 13:45:59;;;;;;;7.83;5.17;;;;;;;13.37;65.84;100557.80;2135330;82;21056;-80
2021/09/20 13:49:02;;;;;;;9.25;5.10;;;;;;;13.43;65.87;100557.12;2128743;82;21509;-79
2021/09/20 13:52:04;;;;;;;8.03;4.80;;;;;;;13.44;65.91;100551.28;2130787;82;20986;-76
2021/09/20 13:55:08;;;;;;;5.97;4.78;;;;;;;13.44;65.63;100557.95;2125636;82;21528;-79
2021/09/20 13:58:11;;;;;;;7.22;5.37;;;;;;;13.36;65.34;100562.80;2129602;82;21060;-79
2021/09/20 14:01:13;;;;;;;9.40;5.40;;;;;;;13.28;65.69;100566.84;2129970;82;21068;-78
2021/09/20 14:04:14;;;;;;;7.70;5.37;;;;;;;13.22;65.67;100568.33;2126811;82;21063;-79